sensor_id;sensor_type;location;lat;lon;timestamp;temperature;humidity
67141;DHT22;54058;52.010;5.546;2023-03-15T00:00:12;4.90;82.20
67141;DHT22;54058;52.010;5.546;2023-03-15T00:02:38;5.00;82.70
67141;DHT22;54058;52.010;5.546;2023-03-15T00:05:04;5.00;82.10
67141;DHT22;54058;52.010;5.546;2023-03-15T00:07:30;5.00;82.10
67141;DHT22;54058;52.010;5.546;2023-03-15T00:09:56;5.00;82.30
67141;DHT22;54058;52.010;5.546;2023-03-15T00:12:22;4.90;82.10
67141;DHT22;54058;52.010;5.546;2023-03-15T00:14:49;4.80;82.30
67141;DHT22;54058;52.010;5.546;2023-03-15T00:17:15;4.70;82.90
67141;DHT22;54058;52.010;5.546;2023-03-15T00:19:40;4.70;83.20
67141;DHT22;54058;52.010;5.546;2023-03-15T00:22:06;4.70;83.20
67141;DHT22;54058;52.010;5.546;2023-03-15T00:24:32;4.80;83.20
67141;DHT22;54058;52.010;5.546;2023-03-15T00:26:57;4.80;83.20
67141;DHT22;54058;52.010;5.546;2023-03-15T00:29:23;4.80;82.80
67141;DHT22;54058;52.010;5.546;2023-03-15T00:31:48;4.80;82.70
67141;DHT22;54058;52.010;5.546;2023-03-15T00:34:16;4.80;82.80
67141;DHT22;54058;52.010;5.546;2023-03-15T00:36:43;4.70;83.10
67141;DHT22;54058;52.010;5.546;2023-03-15T00:39:09;4.70;82.80
67141;DHT22;54058;52.010;5.546;2023-03-15T00:41:35;4.70;83.00
67141;DHT22;54058;52.010;5.546;2023-03-15T00:44:00;4.70;83.10
67141;DHT22;54058;52.010;5.546;2023-03-15T00:46:26;4.70;83.30
67141;DHT22;54058;52.010;5.546;2023-03-15T00:48:52;4.60;83.00
67141;DHT22;54058;52.010;5.546;2023-03-15T00:51:20;4.60;83.10
67141;DHT22;54058;52.010;5.546;2023-03-15T00:53:48;4.50;83.00
67141;DHT22;54058;52.010;5.546;2023-03-15T00:56:25;4.60;83.10
67141;DHT22;54058;52.010;5.546;2023-03-15T00:58:51;4.60;83.90
67141;DHT22;54058;52.010;5.546;2023-03-15T01:01:22;4.70;83.40
67141;DHT22;54058;52.010;5.546;2023-03-15T01:03:48;4.70;82.90
67141;DHT22;54058;52.010;5.546;2023-03-15T01:06:16;4.60;83.10
67141;DHT22;54058;52.010;5.546;2023-03-15T01:08:43;4.70;83.60
67141;DHT22;54058;52.010;5.546;2023-03-15T01:11:18;4.60;83.70
67141;DHT22;54058;52.010;5.546;2023-03-15T01:13:45;4.70;83.80
67141;DHT22;54058;52.010;5.546;2023-03-15T01:16:12;4.50;83.10
67141;DHT22;54058;52.010;5.546;2023-03-15T01:18:39;4.50;83.10
67141;DHT22;54058;52.010;5.546;2023-03-15T01:21:10;4.50;83.40
67141;DHT22;54058;52.010;5.546;2023-03-15T01:23:36;4.50;83.30
67141;DHT22;54058;52.010;5.546;2023-03-15T01:26:05;4.50;83.30
67141;DHT22;54058;52.010;5.546;2023-03-15T01:28:30;4.40;83.70
67141;DHT22;54058;52.010;5.546;2023-03-15T01:30:56;4.30;83.50
67141;DHT22;54058;52.010;5.546;2023-03-15T01:33:22;4.30;83.60
67141;DHT22;54058;52.010;5.546;2023-03-15T01:35:48;4.30;83.70
67141;DHT22;54058;52.010;5.546;2023-03-15T01:38:22;4.30;83.60
67141;DHT22;54058;52.010;5.546;2023-03-15T01:40:47;4.30;84.20
67141;DHT22;54058;52.010;5.546;2023-03-15T01:43:24;4.30;84.20
67141;DHT22;54058;52.010;5.546;2023-03-15T01:48:43;4.40;86.30
67141;DHT22;54058;52.010;5.546;2023-03-15T01:51:21;4.50;84.40
67141;DHT22;54058;52.010;5.546;2023-03-15T01:53:53;4.50;84.20
67141;DHT22;54058;52.010;5.546;2023-03-15T01:56:21;4.50;84.10
67141;DHT22;54058;52.010;5.546;2023-03-15T01:58:47;4.60;83.90
67141;DHT22;54058;52.010;5.546;2023-03-15T02:01:14;4.60;83.80
67141;DHT22;54058;52.010;5.546;2023-03-15T02:03:43;4.60;83.90
67141;DHT22;54058;52.010;5.546;2023-03-15T02:06:18;4.60;83.90
67141;DHT22;54058;52.010;5.546;2023-03-15T02:08:56;4.60;83.80
67141;DHT22;54058;52.010;5.546;2023-03-15T02:11:24;4.70;84.10
67141;DHT22;54058;52.010;5.546;2023-03-15T02:13:51;4.60;83.20
67141;DHT22;54058;52.010;5.546;2023-03-15T02:16:17;4.50;83.50
67141;DHT22;54058;52.010;5.546;2023-03-15T02:18:43;4.50;83.90
67141;DHT22;54058;52.010;5.546;2023-03-15T02:26:52;4.50;83.80
67141;DHT22;54058;52.010;5.546;2023-03-15T02:29:19;4.30;83.90
67141;DHT22;54058;52.010;5.546;2023-03-15T02:31:46;4.30;84.30
67141;DHT22;54058;52.010;5.546;2023-03-15T02:34:11;4.30;84.20
67141;DHT22;54058;52.010;5.546;2023-03-15T02:36:37;4.30;84.20
67141;DHT22;54058;52.010;5.546;2023-03-15T02:39:13;4.30;84.30
67141;DHT22;54058;52.010;5.546;2023-03-15T02:41:42;4.30;84.40
67141;DHT22;54058;52.010;5.546;2023-03-15T02:44:15;4.30;84.10
67141;DHT22;54058;52.010;5.546;2023-03-15T02:46:45;4.30;84.40
67141;DHT22;54058;52.010;5.546;2023-03-15T02:49:12;4.30;84.80
67141;DHT22;54058;52.010;5.546;2023-03-15T02:51:41;4.20;84.20
67141;DHT22;54058;52.010;5.546;2023-03-15T02:54:07;4.30;84.60
67141;DHT22;54058;52.010;5.546;2023-03-15T02:56:33;4.30;84.50
67141;DHT22;54058;52.010;5.546;2023-03-15T02:58:59;4.30;84.50
67141;DHT22;54058;52.010;5.546;2023-03-15T03:01:24;4.30;84.30
67141;DHT22;54058;52.010;5.546;2023-03-15T03:03:50;4.30;84.00
67141;DHT22;54058;52.010;5.546;2023-03-15T03:06:16;4.20;84.00
67141;DHT22;54058;52.010;5.546;2023-03-15T03:08:43;4.20;84.40
67141;DHT22;54058;52.010;5.546;2023-03-15T03:11:12;4.20;84.50
67141;DHT22;54058;52.010;5.546;2023-03-15T03:13:38;4.10;85.40
67141;DHT22;54058;52.010;5.546;2023-03-15T03:16:04;4.10;84.90
67141;DHT22;54058;52.010;5.546;2023-03-15T03:18:30;4.10;84.70
67141;DHT22;54058;52.010;5.546;2023-03-15T03:21:01;4.10;84.70
67141;DHT22;54058;52.010;5.546;2023-03-15T03:23:29;4.10;84.50
67141;DHT22;54058;52.010;5.546;2023-03-15T03:25:56;4.10;84.40
67141;DHT22;54058;52.010;5.546;2023-03-15T03:28:24;4.10;84.40
67141;DHT22;54058;52.010;5.546;2023-03-15T03:30:50;4.30;84.80
67141;DHT22;54058;52.010;5.546;2023-03-15T03:33:15;4.30;86.00
67141;DHT22;54058;52.010;5.546;2023-03-15T03:35:41;4.20;84.40
67141;DHT22;54058;52.010;5.546;2023-03-15T03:38:08;4.20;84.30
67141;DHT22;54058;52.010;5.546;2023-03-15T03:40:34;4.00;84.20
67141;DHT22;54058;52.010;5.546;2023-03-15T03:42:59;3.90;84.40
67141;DHT22;54058;52.010;5.546;2023-03-15T03:45:25;3.90;84.70
67141;DHT22;54058;52.010;5.546;2023-03-15T03:47:50;4.00;84.60
67141;DHT22;54058;52.010;5.546;2023-03-15T03:50:16;4.00;84.70
67141;DHT22;54058;52.010;5.546;2023-03-15T03:52:42;3.90;84.60
67141;DHT22;54058;52.010;5.546;2023-03-15T03:55:10;3.90;84.70
67141;DHT22;54058;52.010;5.546;2023-03-15T03:57:38;3.90;84.70
67141;DHT22;54058;52.010;5.546;2023-03-15T04:00:05;4.00;84.60
67141;DHT22;54058;52.010;5.546;2023-03-15T04:02:31;3.90;84.70
67141;DHT22;54058;52.010;5.546;2023-03-15T04:04:58;3.90;84.80
67141;DHT22;54058;52.010;5.546;2023-03-15T04:07:24;3.90;85.00
67141;DHT22;54058;52.010;5.546;2023-03-15T04:09:49;3.90;84.90
67141;DHT22;54058;52.010;5.546;2023-03-15T04:12:15;4.00;85.00
67141;DHT22;54058;52.010;5.546;2023-03-15T04:14:41;4.00;84.70
67141;DHT22;54058;52.010;5.546;2023-03-15T04:17:07;3.90;84.60
67141;DHT22;54058;52.010;5.546;2023-03-15T04:19:33;3.90;84.50
67141;DHT22;54058;52.010;5.546;2023-03-15T04:21:59;3.90;84.60
67141;DHT22;54058;52.010;5.546;2023-03-15T04:24:31;3.90;84.60
67141;DHT22;54058;52.010;5.546;2023-03-15T04:26:57;3.90;84.60
67141;DHT22;54058;52.010;5.546;2023-03-15T04:29:23;3.90;84.80
67141;DHT22;54058;52.010;5.546;2023-03-15T04:31:48;3.80;84.60
67141;DHT22;54058;52.010;5.546;2023-03-15T04:34:14;3.80;84.90
67141;DHT22;54058;52.010;5.546;2023-03-15T04:36:39;3.80;84.70
67141;DHT22;54058;52.010;5.546;2023-03-15T04:39:07;3.80;84.80
67141;DHT22;54058;52.010;5.546;2023-03-15T04:41:34;3.70;84.80
67141;DHT22;54058;52.010;5.546;2023-03-15T04:44:01;3.70;84.80
67141;DHT22;54058;52.010;5.546;2023-03-15T04:46:29;3.70;84.80
67141;DHT22;54058;52.010;5.546;2023-03-15T04:48:54;3.80;84.80
67141;DHT22;54058;52.010;5.546;2023-03-15T04:51:20;3.80;85.10
67141;DHT22;54058;52.010;5.546;2023-03-15T04:53:45;3.80;84.80
67141;DHT22;54058;52.010;5.546;2023-03-15T04:56:11;3.80;84.70
67141;DHT22;54058;52.010;5.546;2023-03-15T04:58:37;3.80;84.90
67141;DHT22;54058;52.010;5.546;2023-03-15T05:01:02;3.90;84.90
67141;DHT22;54058;52.010;5.546;2023-03-15T05:03:28;3.80;84.60
67141;DHT22;54058;52.010;5.546;2023-03-15T05:05:53;3.80;84.80
67141;DHT22;54058;52.010;5.546;2023-03-15T05:08:19;3.80;84.70
67141;DHT22;54058;52.010;5.546;2023-03-15T05:10:45;3.80;84.60
67141;DHT22;54058;52.010;5.546;2023-03-15T05:13:10;3.80;84.70
67141;DHT22;54058;52.010;5.546;2023-03-15T05:15:36;3.80;84.80
67141;DHT22;54058;52.010;5.546;2023-03-15T05:18:02;3.80;84.50
67141;DHT22;54058;52.010;5.546;2023-03-15T05:20:28;3.80;84.50
67141;DHT22;54058;52.010;5.546;2023-03-15T05:22:54;3.80;84.70
67141;DHT22;54058;52.010;5.546;2023-03-15T05:25:19;3.80;84.60
67141;DHT22;54058;52.010;5.546;2023-03-15T05:27:45;3.90;84.80
67141;DHT22;54058;52.010;5.546;2023-03-15T05:30:12;3.90;84.70
67141;DHT22;54058;52.010;5.546;2023-03-15T05:32:39;3.90;84.60
67141;DHT22;54058;52.010;5.546;2023-03-15T05:35:10;3.80;84.50
67141;DHT22;54058;52.010;5.546;2023-03-15T05:37:36;3.80;84.40
67141;DHT22;54058;52.010;5.546;2023-03-15T05:40:03;3.80;84.40
67141;DHT22;54058;52.010;5.546;2023-03-15T05:42:32;3.80;85.10
67141;DHT22;54058;52.010;5.546;2023-03-15T05:44:58;3.80;84.60
67141;DHT22;54058;52.010;5.546;2023-03-15T05:47:24;3.70;84.70
67141;DHT22;54058;52.010;5.546;2023-03-15T05:49:49;3.80;84.70
67141;DHT22;54058;52.010;5.546;2023-03-15T05:52:16;3.80;84.70
67141;DHT22;54058;52.010;5.546;2023-03-15T05:54:42;3.80;84.80
67141;DHT22;54058;52.010;5.546;2023-03-15T05:57:08;3.90;84.70
67141;DHT22;54058;52.010;5.546;2023-03-15T05:59:33;3.60;84.60
67141;DHT22;54058;52.010;5.546;2023-03-15T06:01:59;3.60;84.80
67141;DHT22;54058;52.010;5.546;2023-03-15T06:04:25;3.60;84.90
67141;DHT22;54058;52.010;5.546;2023-03-15T06:06:51;3.70;85.00
67141;DHT22;54058;52.010;5.546;2023-03-15T06:09:17;3.70;84.90
67141;DHT22;54058;52.010;5.546;2023-03-15T06:11:42;3.80;84.80
67141;DHT22;54058;52.010;5.546;2023-03-15T06:14:08;3.80;84.80
67141;DHT22;54058;52.010;5.546;2023-03-15T06:16:33;3.80;84.80
67141;DHT22;54058;52.010;5.546;2023-03-15T06:18:59;3.90;84.80
67141;DHT22;54058;52.010;5.546;2023-03-15T06:21:25;3.90;84.60
67141;DHT22;54058;52.010;5.546;2023-03-15T06:23:51;3.90;84.70
67141;DHT22;54058;52.010;5.546;2023-03-15T06:26:16;3.90;84.50
67141;DHT22;54058;52.010;5.546;2023-03-15T06:28:44;3.90;84.60
67141;DHT22;54058;52.010;5.546;2023-03-15T06:31:11;3.80;84.70
67141;DHT22;54058;52.010;5.546;2023-03-15T06:33:37;3.90;85.10
67141;DHT22;54058;52.010;5.546;2023-03-15T06:36:03;3.80;85.00
67141;DHT22;54058;52.010;5.546;2023-03-15T06:38:29;3.70;85.10
67141;DHT22;54058;52.010;5.546;2023-03-15T06:40:56;3.80;85.60
67141;DHT22;54058;52.010;5.546;2023-03-15T06:43:23;3.80;85.60
67141;DHT22;54058;52.010;5.546;2023-03-15T06:45:49;3.90;85.50
67141;DHT22;54058;52.010;5.546;2023-03-15T06:48:15;3.90;85.50
67141;DHT22;54058;52.010;5.546;2023-03-15T06:50:42;4.00;85.60
67141;DHT22;54058;52.010;5.546;2023-03-15T06:53:07;4.00;85.50
67141;DHT22;54058;52.010;5.546;2023-03-15T06:55:33;4.00;85.40
67141;DHT22;54058;52.010;5.546;2023-03-15T06:57:59;4.10;86.20
67141;DHT22;54058;52.010;5.546;2023-03-15T07:00:25;4.10;85.50
67141;DHT22;54058;52.010;5.546;2023-03-15T07:02:50;4.10;85.60
67141;DHT22;54058;52.010;5.546;2023-03-15T07:05:16;4.20;85.60
67141;DHT22;54058;52.010;5.546;2023-03-15T07:07:42;4.20;85.70
67141;DHT22;54058;52.010;5.546;2023-03-15T07:10:08;4.10;85.90
67141;DHT22;54058;52.010;5.546;2023-03-15T07:12:34;4.20;86.10
67141;DHT22;54058;52.010;5.546;2023-03-15T07:14:59;4.30;86.10
67141;DHT22;54058;52.010;5.546;2023-03-15T07:17:25;4.30;86.10
67141;DHT22;54058;52.010;5.546;2023-03-15T07:19:51;4.40;86.20
67141;DHT22;54058;52.010;5.546;2023-03-15T07:22:16;4.40;86.40
67141;DHT22;54058;52.010;5.546;2023-03-15T07:24:42;4.70;87.30
67141;DHT22;54058;52.010;5.546;2023-03-15T07:27:11;5.70;87.90
67141;DHT22;54058;52.010;5.546;2023-03-15T07:29:37;6.80;86.80
67141;DHT22;54058;52.010;5.546;2023-03-15T07:32:03;7.20;84.90
67141;DHT22;54058;52.010;5.546;2023-03-15T07:34:29;7.30;84.40
67141;DHT22;54058;52.010;5.546;2023-03-15T07:36:54;7.70;84.20
67141;DHT22;54058;52.010;5.546;2023-03-15T07:39:20;8.00;83.60
67141;DHT22;54058;52.010;5.546;2023-03-15T07:41:46;8.20;83.20
67141;DHT22;54058;52.010;5.546;2023-03-15T07:44:11;8.50;83.30
67141;DHT22;54058;52.010;5.546;2023-03-15T07:46:37;8.70;83.00
67141;DHT22;54058;52.010;5.546;2023-03-15T07:49:03;8.60;83.70
67141;DHT22;54058;52.010;5.546;2023-03-15T07:51:28;8.20;83.50
67141;DHT22;54058;52.010;5.546;2023-03-15T07:53:54;7.90;84.80
67141;DHT22;54058;52.010;5.546;2023-03-15T07:56:20;7.90;85.80
67141;DHT22;54058;52.010;5.546;2023-03-15T07:58:45;7.60;85.90
67141;DHT22;54058;52.010;5.546;2023-03-15T08:01:11;7.50;86.30
67141;DHT22;54058;52.010;5.546;2023-03-15T08:03:37;7.20;86.30
67141;DHT22;54058;52.010;5.546;2023-03-15T08:06:02;7.10;86.90
67141;DHT22;54058;52.010;5.546;2023-03-15T08:08:28;7.00;86.80
67141;DHT22;54058;52.010;5.546;2023-03-15T08:10:54;6.80;86.80
67141;DHT22;54058;52.010;5.546;2023-03-15T08:13:20;6.80;87.10
67141;DHT22;54058;52.010;5.546;2023-03-15T08:15:45;6.80;87.30
67141;DHT22;54058;52.010;5.546;2023-03-15T08:18:12;7.00;87.30
67141;DHT22;54058;52.010;5.546;2023-03-15T08:20:38;7.10;86.80
67141;DHT22;54058;52.010;5.546;2023-03-15T08:23:03;7.30;87.00
67141;DHT22;54058;52.010;5.546;2023-03-15T08:25:29;7.50;86.50
67141;DHT22;54058;52.010;5.546;2023-03-15T08:27:55;7.70;86.20
67141;DHT22;54058;52.010;5.546;2023-03-15T08:30:21;7.90;85.90
67141;DHT22;54058;52.010;5.546;2023-03-15T08:32:48;8.00;85.30
67141;DHT22;54058;52.010;5.546;2023-03-15T08:35:15;7.80;83.90
67141;DHT22;54058;52.010;5.546;2023-03-15T08:37:42;7.70;84.80
67141;DHT22;54058;52.010;5.546;2023-03-15T08:40:13;7.70;84.40
67141;DHT22;54058;52.010;5.546;2023-03-15T08:42:39;7.70;84.70
67141;DHT22;54058;52.010;5.546;2023-03-15T08:45:05;7.70;84.60
67141;DHT22;54058;52.010;5.546;2023-03-15T08:47:34;7.60;84.80
67141;DHT22;54058;52.010;5.546;2023-03-15T08:50:01;7.50;84.70
67141;DHT22;54058;52.010;5.546;2023-03-15T08:52:30;7.50;85.40
67141;DHT22;54058;52.010;5.546;2023-03-15T08:54:55;7.60;84.90
67141;DHT22;54058;52.010;5.546;2023-03-15T08:57:22;7.50;84.10
67141;DHT22;54058;52.010;5.546;2023-03-15T08:59:51;7.40;84.00
67141;DHT22;54058;52.010;5.546;2023-03-15T09:02:17;7.40;84.30
67141;DHT22;54058;52.010;5.546;2023-03-15T09:04:43;7.40;84.70
67141;DHT22;54058;52.010;5.546;2023-03-15T09:07:08;7.40;84.80
67141;DHT22;54058;52.010;5.546;2023-03-15T09:09:34;7.40;83.40
67141;DHT22;54058;52.010;5.546;2023-03-15T09:12:00;7.40;83.40
67141;DHT22;54058;52.010;5.546;2023-03-15T09:14:26;7.50;85.00
67141;DHT22;54058;52.010;5.546;2023-03-15T09:16:51;7.80;84.90
67141;DHT22;54058;52.010;5.546;2023-03-15T09:19:17;8.00;84.80
67141;DHT22;54058;52.010;5.546;2023-03-15T09:21:43;8.20;84.50
67141;DHT22;54058;52.010;5.546;2023-03-15T09:24:09;8.40;84.00
67141;DHT22;54058;52.010;5.546;2023-03-15T09:26:35;8.40;83.30
67141;DHT22;54058;52.010;5.546;2023-03-15T09:29:01;8.30;83.10
67141;DHT22;54058;52.010;5.546;2023-03-15T09:31:27;8.30;84.40
67141;DHT22;54058;52.010;5.546;2023-03-15T09:33:52;8.50;84.10
67141;DHT22;54058;52.010;5.546;2023-03-15T09:36:18;8.50;83.60
67141;DHT22;54058;52.010;5.546;2023-03-15T09:38:43;8.60;83.90
67141;DHT22;54058;52.010;5.546;2023-03-15T09:46:31;8.60;84.20
67141;DHT22;54058;52.010;5.546;2023-03-15T09:51:54;8.90;83.60
67141;DHT22;54058;52.010;5.546;2023-03-15T09:54:35;9.10;83.60
67141;DHT22;54058;52.010;5.546;2023-03-15T09:57:09;9.20;83.50
67141;DHT22;54058;52.010;5.546;2023-03-15T09:59:42;9.30;83.20
67141;DHT22;54058;52.010;5.546;2023-03-15T10:02:26;9.40;83.00
67141;DHT22;54058;52.010;5.546;2023-03-15T10:05:05;9.50;82.70
67141;DHT22;54058;52.010;5.546;2023-03-15T10:07:33;9.40;81.90
67141;DHT22;54058;52.010;5.546;2023-03-15T10:09:59;9.30;81.10
67141;DHT22;54058;52.010;5.546;2023-03-15T10:12:32;9.00;79.70
67141;DHT22;54058;52.010;5.546;2023-03-15T10:20:33;8.90;80.90
67141;DHT22;54058;52.010;5.546;2023-03-15T10:26:05;9.10;78.30
67141;DHT22;54058;52.010;5.546;2023-03-15T10:28:33;9.10;79.20
67141;DHT22;54058;52.010;5.546;2023-03-15T10:31:17;9.00;79.30
67141;DHT22;54058;52.010;5.546;2023-03-15T10:33:46;8.90;79.20
67141;DHT22;54058;52.010;5.546;2023-03-15T10:36:23;8.90;79.90
67141;DHT22;54058;52.010;5.546;2023-03-15T10:38:49;9.10;78.80
67141;DHT22;54058;52.010;5.546;2023-03-15T10:41:36;9.30;79.00
67141;DHT22;54058;52.010;5.546;2023-03-15T10:44:05;9.50;78.60
67141;DHT22;54058;52.010;5.546;2023-03-15T10:46:32;9.60;78.90
67141;DHT22;54058;52.010;5.546;2023-03-15T10:49:08;9.90;79.00
67141;DHT22;54058;52.010;5.546;2023-03-15T10:51:57;9.90;78.10
67141;DHT22;54058;52.010;5.546;2023-03-15T10:54:22;9.80;77.30
67141;DHT22;54058;52.010;5.546;2023-03-15T10:56:58;9.90;78.80
67141;DHT22;54058;52.010;5.546;2023-03-15T10:59:28;10.00;78.10
67141;DHT22;54058;52.010;5.546;2023-03-15T11:04:42;10.10;72.40
67141;DHT22;54058;52.010;5.546;2023-03-15T11:07:09;10.00;76.50
67141;DHT22;54058;52.010;5.546;2023-03-15T11:09:43;10.00;76.90
67141;DHT22;54058;52.010;5.546;2023-03-15T11:12:15;10.10;77.10
67141;DHT22;54058;52.010;5.546;2023-03-15T11:14:44;10.20;76.90
67141;DHT22;54058;52.010;5.546;2023-03-15T11:17:40;10.20;76.40
67141;DHT22;54058;52.010;5.546;2023-03-15T11:20:15;10.10;71.90
67141;DHT22;54058;52.010;5.546;2023-03-15T11:22:43;10.00;59.60
67141;DHT22;54058;52.010;5.546;2023-03-15T11:25:16;10.00;75.30
67141;DHT22;54058;52.010;5.546;2023-03-15T11:27:43;10.00;74.40
67141;DHT22;54058;52.010;5.546;2023-03-15T11:30:12;10.00;72.40
67141;DHT22;54058;52.010;5.546;2023-03-15T11:32:38;9.90;67.10
67141;DHT22;54058;52.010;5.546;2023-03-15T11:35:31;10.10;75.70
67141;DHT22;54058;52.010;5.546;2023-03-15T11:38:01;10.40;74.40
67141;DHT22;54058;52.010;5.546;2023-03-15T11:40:32;10.50;76.00
67141;DHT22;54058;52.010;5.546;2023-03-15T11:45:53;10.80;74.20
67141;DHT22;54058;52.010;5.546;2023-03-15T11:50:56;10.90;72.10
67141;DHT22;54058;52.010;5.546;2023-03-15T11:53:28;10.70;74.00
67141;DHT22;54058;52.010;5.546;2023-03-15T11:55:55;10.80;73.90
67141;DHT22;54058;52.010;5.546;2023-03-15T11:58:32;10.80;74.80
67141;DHT22;54058;52.010;5.546;2023-03-15T12:01:03;10.90;74.60
67141;DHT22;54058;52.010;5.546;2023-03-15T12:03:34;10.90;74.00
67141;DHT22;54058;52.010;5.546;2023-03-15T12:06:11;10.90;73.90
67141;DHT22;54058;52.010;5.546;2023-03-15T12:08:55;10.90;72.20
67141;DHT22;54058;52.010;5.546;2023-03-15T12:16:30;11.00;74.60
67141;DHT22;54058;52.010;5.546;2023-03-15T12:19:02;11.00;74.10
67141;DHT22;54058;52.010;5.546;2023-03-15T12:21:39;11.00;74.00
67141;DHT22;54058;52.010;5.546;2023-03-15T12:24:13;11.00;74.20
67141;DHT22;54058;52.010;5.546;2023-03-15T12:26:44;11.00;74.80
67141;DHT22;54058;52.010;5.546;2023-03-15T12:32:11;11.10;73.70
67141;DHT22;54058;52.010;5.546;2023-03-15T12:37:07;11.10;73.40
67141;DHT22;54058;52.010;5.546;2023-03-15T12:39:48;11.00;72.70
67141;DHT22;54058;52.010;5.546;2023-03-15T12:50:37;11.00;73.30
67141;DHT22;54058;52.010;5.546;2023-03-15T12:53:39;11.00;71.80
67141;DHT22;54058;52.010;5.546;2023-03-15T12:58:43;11.00;71.80
67141;DHT22;54058;52.010;5.546;2023-03-15T13:01:11;10.90;72.10
67141;DHT22;54058;52.010;5.546;2023-03-15T13:03:40;10.90;72.10
67141;DHT22;54058;52.010;5.546;2023-03-15T13:19:26;10.70;70.30
67141;DHT22;54058;52.010;5.546;2023-03-15T13:27:37;10.40;69.80
67141;DHT22;54058;52.010;5.546;2023-03-15T13:33:20;10.50;70.00
67141;DHT22;54058;52.010;5.546;2023-03-15T13:35:59;10.50;68.80
67141;DHT22;54058;52.010;5.546;2023-03-15T13:38:37;10.50;70.70
67141;DHT22;54058;52.010;5.546;2023-03-15T13:41:19;10.50;69.70
67141;DHT22;54058;52.010;5.546;2023-03-15T13:43:46;10.60;70.60
67141;DHT22;54058;52.010;5.546;2023-03-15T13:46:13;10.50;68.80
67141;DHT22;54058;52.010;5.546;2023-03-15T13:48:42;10.50;69.20
67141;DHT22;54058;52.010;5.546;2023-03-15T13:51:23;10.60;70.10
67141;DHT22;54058;52.010;5.546;2023-03-15T13:53:53;10.60;70.00
67141;DHT22;54058;52.010;5.546;2023-03-15T13:56:30;10.60;70.10
67141;DHT22;54058;52.010;5.546;2023-03-15T13:58:58;10.60;69.90
67141;DHT22;54058;52.010;5.546;2023-03-15T14:01:25;10.60;70.10
67141;DHT22;54058;52.010;5.546;2023-03-15T14:03:59;10.50;70.20
67141;DHT22;54058;52.010;5.546;2023-03-15T14:06:28;10.50;68.80
67141;DHT22;54058;52.010;5.546;2023-03-15T14:09:06;10.50;69.80
67141;DHT22;54058;52.010;5.546;2023-03-15T14:11:38;10.50;70.10
67141;DHT22;54058;52.010;5.546;2023-03-15T14:14:25;10.50;70.20
67141;DHT22;54058;52.010;5.546;2023-03-15T14:16:52;10.60;68.70
67141;DHT22;54058;52.010;5.546;2023-03-15T14:19:20;10.50;63.50
67141;DHT22;54058;52.010;5.546;2023-03-15T14:21:51;10.50;68.60
67141;DHT22;54058;52.010;5.546;2023-03-15T14:24:32;10.40;69.60
67141;DHT22;54058;52.010;5.546;2023-03-15T14:27:00;10.50;68.80
67141;DHT22;54058;52.010;5.546;2023-03-15T14:29:32;10.50;68.50
67141;DHT22;54058;52.010;5.546;2023-03-15T14:32:11;10.50;69.30
67141;DHT22;54058;52.010;5.546;2023-03-15T14:34:47;10.60;69.00
67141;DHT22;54058;52.010;5.546;2023-03-15T14:37:37;10.60;69.60
67141;DHT22;54058;52.010;5.546;2023-03-15T14:40:30;10.50;67.10
67141;DHT22;54058;52.010;5.546;2023-03-15T14:43:00;10.50;67.30
67141;DHT22;54058;52.010;5.546;2023-03-15T14:45:26;10.40;63.20
67141;DHT22;54058;52.010;5.546;2023-03-15T14:48:05;10.40;68.60
67141;DHT22;54058;52.010;5.546;2023-03-15T14:50:35;10.40;68.50
67141;DHT22;54058;52.010;5.546;2023-03-15T14:53:02;10.40;68.40
67141;DHT22;54058;52.010;5.546;2023-03-15T14:55:31;10.40;69.40
67141;DHT22;54058;52.010;5.546;2023-03-15T14:58:12;10.40;68.70
67141;DHT22;54058;52.010;5.546;2023-03-15T15:00:38;10.40;68.90
67141;DHT22;54058;52.010;5.546;2023-03-15T15:03:12;10.40;67.80
67141;DHT22;54058;52.010;5.546;2023-03-15T15:05:39;10.30;68.30
67141;DHT22;54058;52.010;5.546;2023-03-15T15:08:09;10.30;67.40
67141;DHT22;54058;52.010;5.546;2023-03-15T15:10:38;10.30;68.00
67141;DHT22;54058;52.010;5.546;2023-03-15T15:13:04;10.30;68.70
67141;DHT22;54058;52.010;5.546;2023-03-15T15:15:30;10.20;62.10
67141;DHT22;54058;52.010;5.546;2023-03-15T15:17:56;10.20;68.20
67141;DHT22;54058;52.010;5.546;2023-03-15T15:20:22;10.20;68.50
67141;DHT22;54058;52.010;5.546;2023-03-15T15:22:49;10.20;68.10
67141;DHT22;54058;52.010;5.546;2023-03-15T15:25:22;10.20;68.30
67141;DHT22;54058;52.010;5.546;2023-03-15T15:27:48;10.10;68.30
67141;DHT22;54058;52.010;5.546;2023-03-15T15:30:17;10.10;68.40
67141;DHT22;54058;52.010;5.546;2023-03-15T15:32:43;10.10;68.60
67141;DHT22;54058;52.010;5.546;2023-03-15T15:35:14;10.10;68.60
67141;DHT22;54058;52.010;5.546;2023-03-15T15:37:41;10.10;68.70
67141;DHT22;54058;52.010;5.546;2023-03-15T15:40:14;10.00;68.60
67141;DHT22;54058;52.010;5.546;2023-03-15T15:42:40;10.10;68.80
67141;DHT22;54058;52.010;5.546;2023-03-15T15:45:14;10.10;68.50
67141;DHT22;54058;52.010;5.546;2023-03-15T15:47:41;10.10;68.30
67141;DHT22;54058;52.010;5.546;2023-03-15T15:50:10;10.10;68.20
67141;DHT22;54058;52.010;5.546;2023-03-15T15:52:37;10.10;67.80
67141;DHT22;54058;52.010;5.546;2023-03-15T15:55:12;10.10;68.00
67141;DHT22;54058;52.010;5.546;2023-03-15T15:57:38;10.10;67.10
67141;DHT22;54058;52.010;5.546;2023-03-15T16:00:06;10.00;67.50
67141;DHT22;54058;52.010;5.546;2023-03-15T16:02:32;10.00;67.70
67141;DHT22;54058;52.010;5.546;2023-03-15T16:04:58;10.00;68.00
67141;DHT22;54058;52.010;5.546;2023-03-15T16:07:23;9.90;68.10
67141;DHT22;54058;52.010;5.546;2023-03-15T16:09:53;9.90;67.50
67141;DHT22;54058;52.010;5.546;2023-03-15T16:12:20;9.90;68.10
67141;DHT22;54058;52.010;5.546;2023-03-15T16:14:45;10.00;68.00
67141;DHT22;54058;52.010;5.546;2023-03-15T16:17:16;9.90;68.10
67141;DHT22;54058;52.010;5.546;2023-03-15T16:19:42;9.90;67.80
67141;DHT22;54058;52.010;5.546;2023-03-15T16:22:07;9.90;68.20
67141;DHT22;54058;52.010;5.546;2023-03-15T16:24:34;9.90;68.10
67141;DHT22;54058;52.010;5.546;2023-03-15T16:27:04;9.90;68.20
67141;DHT22;54058;52.010;5.546;2023-03-15T16:29:44;9.80;67.60
67141;DHT22;54058;52.010;5.546;2023-03-15T16:32:20;9.80;67.50
67141;DHT22;54058;52.010;5.546;2023-03-15T16:34:49;9.80;67.80
67141;DHT22;54058;52.010;5.546;2023-03-15T16:37:22;9.70;68.10
67141;DHT22;54058;52.010;5.546;2023-03-15T16:39:49;9.70;67.90
67141;DHT22;54058;52.010;5.546;2023-03-15T16:42:18;9.60;67.60
67141;DHT22;54058;52.010;5.546;2023-03-15T16:44:43;9.50;67.50
67141;DHT22;54058;52.010;5.546;2023-03-15T16:47:09;9.50;67.70
67141;DHT22;54058;52.010;5.546;2023-03-15T16:49:35;9.50;67.90
67141;DHT22;54058;52.010;5.546;2023-03-15T16:52:02;9.40;67.50
67141;DHT22;54058;52.010;5.546;2023-03-15T16:54:29;9.40;67.60
67141;DHT22;54058;52.010;5.546;2023-03-15T16:56:56;9.30;68.20
67141;DHT22;54058;52.010;5.546;2023-03-15T16:59:22;9.40;68.10
67141;DHT22;54058;52.010;5.546;2023-03-15T17:01:47;9.30;67.80
67141;DHT22;54058;52.010;5.546;2023-03-15T17:04:15;9.20;68.10
67141;DHT22;54058;52.010;5.546;2023-03-15T17:06:44;9.20;68.00